Time;durP1;ratioP1;P1;durP2;ratioP2;P2;SDS_P1;SDS_P2;PMS_P1;PMS_P2;Temp;Humidity;BMP_temperature;BMP_pressure;BME280_temperature;BME280_humidity;BME280_pressure;Samples;Min_cycle;Max_cycle;Signal;HPM_P1;HPM_P2
2022/03/21 00:00:49;;;;;;;;;;;;;;;3.52;100.00;100029.81;5071668;28;19924;-76
2022/03/21 00:03:17;;;;;;;;;;;;;;;3.51;100.00;100032.94;5071138;28;20397;-76
2022/03/21 00:05:45;;;;;;;;;;;;;;;3.48;100.00;100025.34;5072197;28;19931;-76
2022/03/21 00:08:13;;;;;;;;;;;;;;;3.38;100.00;100025.84;5073232;28;20386;-76
2022/03/21 00:10:41;;;;;;;;;;;;;;;3.41;100.00;100028.72;5071786;28;20014;-76
2022/03/21 00:13:08;;;;;;;;;;;;;;;3.34;100.00;100028.53;5072641;28;19928;-76
2022/03/21 00:15:36;;;;;;;;;;;;;;;3.38;100.00;100026.66;5076933;28;19924;-76
2022/03/21 00:18:04;;;;;;;;;;;;;;;3.43;100.00;100020.06;5077121;28;19928;-76
2022/03/21 00:20:32;;;;;;;;;;;;;;;3.39;100.00;100027.47;5076987;28;20386;-76
2022/03/21 00:22:59;;;;;;;;;;;;;;;3.35;100.00;100013.53;5076860;28;20391;-76
2022/03/21 00:25:26;;;;;;;;;;;;;;;3.16;100.00;100018.13;5076640;28;20054;-76
2022/03/21 00:27:54;;;;;;;;;;;;;;;3.11;100.00;100023.88;5076817;28;19924;-76
2022/03/21 00:30:21;;;;;;;;;;;;;;;3.08;100.00;100016.31;5075597;28;20387;-76
2022/03/21 00:32:48;;;;;;;;;;;;;;;3.17;100.00;100019.72;5075491;28;19925;-76
2022/03/21 00:35:16;;;;;;;;;;;;;;;3.20;100.00;100024.53;5075436;28;19924;-76
2022/03/21 00:37:44;;;;;;;;;;;;;;;3.03;100.00;100022.88;5075478;28;19924;-76
2022/03/21 00:40:12;;;;;;;;;;;;;;;3.06;100.00;100018.63;5075165;28;19925;-76
2022/03/21 00:42:40;;;;;;;;;;;;;;;3.04;100.00;100020.94;5076509;28;19924;-76
2022/03/21 00:45:12;;;;;;;;;;;;;;;3.05;100.00;100025.28;5058958;28;19931;-76
2022/03/21 00:47:39;;;;;;;;;;;;;;;3.08;100.00;100019.06;5058680;28;19931;-76
2022/03/21 00:50:07;;;;;;;;;;;;;;;3.07;100.00;100006.41;5076369;28;19924;-76
2022/03/21 00:52:45;;;;;;;;;;;;;;;3.02;100.00;100014.94;5075967;28;19978;-76
2022/03/21 00:55:13;;;;;;;;;;;;;;;3.01;100.00;100016.13;5075476;28;20003;-76
2022/03/21 00:57:42;;;;;;;;;;;;;;;3.01;100.00;100010.59;5076051;28;20356;-76
2022/03/21 01:00:12;;;;;;;;;;;;;;;3.02;100.00;100014.94;5075757;28;19924;-76
2022/03/21 01:02:40;;;;;;;;;;;;;;;2.96;100.00;100013.59;5075599;28;19925;-76
2022/03/21 01:05:08;;;;;;;;;;;;;;;2.87;100.00;100016.50;5074551;28;19939;-76
2022/03/21 01:07:36;;;;;;;;;;;;;;;2.71;100.00;100015.59;5074783;28;19939;-76
2022/03/21 01:10:04;;;;;;;;;;;;;;;2.70;100.00;100013.19;5074679;28;19933;-76
2022/03/21 01:12:32;;;;;;;;;;;;;;;2.76;100.00;100017.31;5076088;28;19967;-76
2022/03/21 01:14:59;;;;;;;;;;;;;;;2.78;100.00;100006.75;5058280;28;20355;-76
2022/03/21 01:17:26;;;;;;;;;;;;;;;2.88;100.00;100014.53;5074803;28;19931;-76
2022/03/21 01:19:54;;;;;;;;;;;;;;;2.83;100.00;100023.06;5075944;28;20023;-76
2022/03/21 01:22:21;;;;;;;;;;;;;;;2.84;100.00;100017.19;5075752;28;19925;-76
2022/03/21 01:24:48;;;;;;;;;;;;;;;2.11;100.00;100023.16;5057890;28;20382;-76
2022/03/21 01:27:15;;;;;;;;;;;;;;;2.35;100.00;100017.66;5074545;28;20295;-76
2022/03/21 01:29:42;;;;;;;;;;;;;;;2.45;100.00;100012.47;5075725;28;19935;-76
2022/03/21 01:32:10;;;;;;;;;;;;;;;2.44;100.00;100010.84;5075705;28;19939;-76
2022/03/21 01:34:37;;;;;;;;;;;;;;;2.20;100.00;100016.38;5075596;28;19932;-76
2022/03/21 01:37:04;;;;;;;;;;;;;;;2.31;100.00;100014.78;5075408;28;19928;-76
2022/03/21 01:39:32;;;;;;;;;;;;;;;2.29;100.00;100021.78;5075546;28;19924;-76
2022/03/21 01:41:59;;;;;;;;;;;;;;;2.17;100.00;100016.25;5075680;28;19960;-76
2022/03/21 01:44:27;;;;;;;;;;;;;;;2.30;100.00;100024.19;5075554;28;19930;-76
2022/03/21 01:46:55;;;;;;;;;;;;;;;2.46;100.00;100029.78;5075481;28;19924;-76
2022/03/21 01:49:24;;;;;;;;;;;;;;;2.38;100.00;100014.97;5074308;28;19935;-76
2022/03/21 01:51:51;;;;;;;;;;;;;;;2.47;100.00;100018.41;5057353;28;19952;-76
2022/03/21 01:57:04;;;;;;;;;;;;;;;2.45;100.00;100017.16;5075398;28;19967;-76
2022/03/21 01:59:32;;;;;;;;;;;;;;;2.43;100.00;100019.47;5083033;28;20358;-76
2022/03/21 02:01:59;;;;;;;;;;;;;;;2.36;100.00;100016.50;5095554;28;19952;-76
2022/03/21 02:04:26;;;;;;;;;;;;;;;2.32;100.00;100013.59;5095448;28;20263;-76
2022/03/21 02:06:54;;;;;;;;;;;;;;;2.31;100.00;100016.72;5095170;28;19924;-76
2022/03/21 02:09:21;;;;;;;;;;;;;;;2.30;100.00;100020.63;5093806;28;19924;-76
2022/03/21 02:11:48;;;;;;;;;;;;;;;2.10;100.00;100016.03;5077376;28;20424;-76
2022/03/21 02:14:15;;;;;;;;;;;;;;;2.16;100.00;100020.97;5095308;28;19924;-76
2022/03/21 02:16:42;;;;;;;;;;;;;;;2.19;100.00;100019.47;5095140;28;20286;-76
2022/03/21 02:19:19;;;;;;;;;;;;;;;2.22;100.00;100014.09;5094023;28;20330;-76
2022/03/21 02:21:52;;;;;;;;;;;;;;;1.99;100.00;100021.19;5093637;28;19931;-76
2022/03/21 02:24:31;;;;;;;;;;;;;;;1.83;100.00;100021.06;5095075;28;19930;-76
2022/03/21 02:26:59;;;;;;;;;;;;;;;1.80;100.00;100024.50;5095003;28;19924;-76
2022/03/21 02:29:26;;;;;;;;;;;;;;;2.05;100.00;100030.03;5076943;28;20266;-76
2022/03/21 02:31:57;;;;;;;;;;;;;;;1.95;100.00;100027.75;5094520;28;19924;-76
2022/03/21 02:34:25;;;;;;;;;;;;;;;1.42;100.00;100021.22;5095123;28;19924;-76
2022/03/21 02:36:54;;;;;;;;;;;;;;;1.35;100.00;100023.72;5092475;28;19928;-76
2022/03/21 02:39:22;;;;;;;;;;;;;;;1.60;100.00;100025.41;5093399;28;19925;-76
2022/03/21 02:41:49;;;;;;;;;;;;;;;1.82;100.00;100024.16;5094724;28;20058;-76
2022/03/21 02:44:16;;;;;;;;;;;;;;;1.98;100.00;100018.78;5094743;28;19948;-76
2022/03/21 02:46:44;;;;;;;;;;;;;;;1.88;100.00;100025.56;5093531;28;20451;-76
2022/03/21 02:49:11;;;;;;;;;;;;;;;1.60;100.00;100014.41;5094470;28;19928;-76
2022/03/21 02:51:39;;;;;;;;;;;;;;;1.65;100.00;100022.41;5094198;28;19924;-76
2022/03/21 02:54:07;;;;;;;;;;;;;;;1.71;100.00;100021.06;5093273;28;20299;-76
2022/03/21 02:56:34;;;;;;;;;;;;;;;1.74;100.00;100014.06;5094403;28;19924;-76
2022/03/21 02:59:02;;;;;;;;;;;;;;;1.71;100.00;100021.06;5094268;28;19924;-76
2022/03/21 03:01:29;;;;;;;;;;;;;;;1.44;100.00;100020.88;5094309;28;19924;-76
2022/03/21 03:03:56;;;;;;;;;;;;;;;1.39;100.00;100024.63;5094152;28;20424;-76
2022/03/21 03:06:23;;;;;;;;;;;;;;;1.56;100.00;100029.97;5094070;28;19928;-76
2022/03/21 03:08:50;;;;;;;;;;;;;;;1.65;100.00;100021.63;5094205;28;19924;-76
2022/03/21 03:11:20;;;;;;;;;;;;;;;1.73;100.00;100020.72;5094147;28;19924;-76
2022/03/21 03:13:48;;;;;;;;;;;;;;;1.70;100.00;100021.41;5092859;28;19932;-76
2022/03/21 03:16:18;;;;;;;;;;;;;;;1.66;100.00;100018.53;5092923;28;19962;-76
2022/03/21 03:18:45;;;;;;;;;;;;;;;1.59;100.00;100017.50;5092364;28;19970;-76
2022/03/21 03:21:15;;;;;;;;;;;;;;;1.48;100.00;100014.38;5093869;28;19924;-76
2022/03/21 03:23:42;;;;;;;;;;;;;;;1.64;100.00;100020.81;5093951;28;19924;-76
2022/03/21 03:26:09;;;;;;;;;;;;;;;1.69;100.00;100017.84;5092881;28;19924;-76
2022/03/21 03:28:38;;;;;;;;;;;;;;;1.60;100.00;100019.09;5093818;28;19950;-76
2022/03/21 03:31:10;;;;;;;;;;;;;;;1.61;100.00;100020.69;5093592;28;20020;-76
2022/03/21 03:33:37;;;;;;;;;;;;;;;1.54;100.00;100015.75;5093601;28;19931;-76
2022/03/21 03:36:05;;;;;;;;;;;;;;;1.44;100.00;100016.19;5093801;28;20019;-76
2022/03/21 03:38:32;;;;;;;;;;;;;;;1.59;100.00;100017.50;5093727;28;19924;-76
2022/03/21 03:41:00;;;;;;;;;;;;;;;1.57;100.00;100019.78;5093700;28;19924;-76
2022/03/21 03:43:27;;;;;;;;;;;;;;;1.52;100.00;100017.22;5093797;28;19925;-76
2022/03/21 03:45:57;;;;;;;;;;;;;;;1.31;100.00;100019.22;5092578;28;19932;-76
2022/03/21 03:48:25;;;;;;;;;;;;;;;1.10;100.00;100016.53;5096343;28;20380;-76
2022/03/21 03:50:52;;;;;;;;;;;;;;;1.31;100.00;100025.56;5097838;28;20331;-76
2022/03/21 03:53:19;;;;;;;;;;;;;;;0.84;100.00;100023.38;5096536;28;20419;-76
2022/03/21 03:55:48;;;;;;;;;;;;;;;1.10;100.00;100022.03;5097744;28;19925;-76
2022/03/21 03:58:15;;;;;;;;;;;;;;;0.78;100.00;100022.81;5097690;28;20001;-76
2022/03/21 04:00:44;;;;;;;;;;;;;;;1.05;100.00;100024.19;5097666;28;19993;-76
2022/03/21 04:05:58;;;;;;;;;;;;;;;0.95;100.00;100022.66;5096323;28;19931;-76
2022/03/21 04:08:25;;;;;;;;;;;;;;;1.06;100.00;100026.59;5096165;28;19931;-76
2022/03/21 04:10:52;;;;;;;;;;;;;;;0.98;100.00;100023.94;5097466;28;20377;-76
2022/03/21 04:13:20;;;;;;;;;;;;;;;0.89;100.00;100021.25;5097434;28;20280;-76
2022/03/21 04:15:47;;;;;;;;;;;;;;;0.99;100.00;100026.34;5097462;28;20373;-76
2022/03/21 04:18:14;;;;;;;;;;;;;;;1.01;100.00;100029.56;5096635;28;19931;-76
2022/03/21 04:20:42;;;;;;;;;;;;;;;0.92;100.00;100036.28;5096117;28;20467;-76
2022/03/21 04:23:11;;;;;;;;;;;;;;;0.79;100.00;100023.63;5076683;28;20592;-76
2022/03/21 04:25:38;;;;;;;;;;;;;;;0.86;100.00;100041.19;5073255;28;19930;-76
2022/03/21 04:28:09;;;;;;;;;;;;;;;1.07;100.00;100043.91;5094255;28;19924;-76
2022/03/21 04:30:37;;;;;;;;;;;;;;;1.12;100.00;100032.72;5097056;28;19924;-76
2022/03/21 04:33:04;;;;;;;;;;;;;;;1.14;100.00;100036.72;5096638;28;20015;-76
2022/03/21 04:35:31;;;;;;;;;;;;;;;0.88;100.00;100029.84;5078768;28;19971;-76
2022/03/21 04:37:59;;;;;;;;;;;;;;;0.97;100.00;100039.63;5076656;28;19970;-76
2022/03/21 04:40:26;;;;;;;;;;;;;;;0.97;100.00;100031.38;5075405;28;20026;-76
2022/03/21 04:42:53;;;;;;;;;;;;;;;0.91;100.00;100040.19;5076439;28;20378;-76
2022/03/21 04:45:20;;;;;;;;;;;;;;;0.88;100.00;100029.84;5076356;28;20394;-76
2022/03/21 04:47:48;;;;;;;;;;;;;;;1.06;100.00;100037.59;5077194;28;19931;-76
2022/03/21 04:50:15;;;;;;;;;;;;;;;0.90;100.00;100039.38;5096612;28;19924;-76
2022/03/21 04:52:42;;;;;;;;;;;;;;;0.96;100.00;100038.03;5096600;28;20259;-76
2022/03/21 04:55:09;;;;;;;;;;;;;;;0.95;100.00;100041.94;5096618;28;20400;-76
2022/03/21 04:57:39;;;;;;;;;;;;;;;0.76;100.00;100041.56;5095318;28;20022;-76
2022/03/21 05:00:06;;;;;;;;;;;;;;;0.36;100.00;100043.16;5095573;28;19931;-76
2022/03/21 05:02:34;;;;;;;;;;;;;;;0.77;100.00;100040.47;5096358;28;19997;-76
2022/03/21 05:05:02;;;;;;;;;;;;;;;0.85;100.00;100041.53;5096399;28;20023;-76
2022/03/21 05:07:29;;;;;;;;;;;;;;;0.78;100.00;100041.25;5096233;28;19928;-76
2022/03/21 05:09:56;;;;;;;;;;;;;;;0.86;100.00;100038.44;5095397;28;20406;-76
2022/03/21 05:12:23;;;;;;;;;;;;;;;0.86;100.00;100038.44;5096368;28;19924;-76
2022/03/21 05:14:51;;;;;;;;;;;;;;;0.90;100.00;100047.63;5095897;28;19950;-76
2022/03/21 05:17:18;;;;;;;;;;;;;;;0.81;100.00;100048.81;5094666;28;19931;-76
2022/03/21 05:19:45;;;;;;;;;;;;;;;0.71;100.00;100047.28;5096177;28;19924;-76
2022/03/21 05:22:12;;;;;;;;;;;;;;;0.71;100.00;100057.50;5096217;28;20373;-76
2022/03/21 05:35:57;;;;;;;;;;;;;;;0.80;100.00;100056.28;5074411;28;19931;-76
2022/03/21 05:38:25;;;;;;;;;;;;;;;0.66;100.00;100054.94;5075551;28;19928;-76
2022/03/21 05:40:56;;;;;;;;;;;;;;;0.44;100.00;100058.78;5075482;28;19970;-76
2022/03/21 05:43:24;;;;;;;;;;;;;;;0.70;100.00;100062.19;5068844;28;19928;-76
2022/03/21 05:45:52;;;;;;;;;;;;;;;0.66;100.00;100071.44;5095718;28;19962;-76
2022/03/21 05:51:05;;;;;;;;;;;;;;;0.80;100.00;100066.47;5095521;28;20355;-76
2022/03/21 05:53:32;;;;;;;;;;;;;;;0.78;100.00;100071.50;5095546;28;19924;-76
2022/03/21 05:56:02;;;;;;;;;;;;;;;0.43;100.00;100076.44;5077872;28;19935;-76
2022/03/21 05:58:30;;;;;;;;;;;;;;;0.58;100.00;100073.09;5095190;28;19924;-76
2022/03/21 06:00:57;;;;;;;;;;;;;;;0.43;100.00;100081.13;5095318;28;20013;-76
2022/03/21 06:03:24;;;;;;;;;;;;;;;0.60;100.00;100081.03;5093936;28;19928;-76
2022/03/21 06:05:52;;;;;;;;;;;;;;;0.46;100.00;100078.50;5095088;28;19924;-76
2022/03/21 06:08:20;;;;;;;;;;;;;;;0.63;100.00;100077.59;5094772;28;19924;-76
2022/03/21 06:10:48;;;;;;;;;;;;;;;0.39;100.00;100078.25;5093547;28;19924;-76
2022/03/21 06:13:16;;;;;;;;;;;;;;;0.56;100.00;100072.63;5094591;28;19928;-76
2022/03/21 06:15:45;;;;;;;;;;;;;;;0.59;100.00;100082.94;5094563;28;19969;-76
2022/03/21 06:18:15;;;;;;;;;;;;;;;0.70;100.00;100084.19;5076412;28;19924;-76
2022/03/21 06:20:42;;;;;;;;;;;;;;;0.67;100.00;100084.84;5093674;28;19967;-76
2022/03/21 06:23:10;;;;;;;;;;;;;;;0.70;100.00;100089.69;5093794;28;19924;-76
2022/03/21 06:25:37;;;;;;;;;;;;;;;0.59;100.00;100077.44;5127675;27;19976;-76
2022/03/21 06:28:04;;;;;;;;;;;;;;;0.69;100.00;100093.59;5094504;28;19935;-76
2022/03/21 06:30:33;;;;;;;;;;;;;;;0.72;100.00;100084.66;5094714;28;19924;-76
2022/03/21 06:33:00;;;;;;;;;;;;;;;0.38;100.00;100082.09;5094686;28;19928;-76
2022/03/21 06:35:27;;;;;;;;;;;;;;;0.56;100.00;100088.34;5094722;28;20360;-76
2022/03/21 06:37:54;;;;;;;;;;;;;;;0.69;100.00;100077.06;5094366;28;19974;-76
2022/03/21 06:40:25;;;;;;;;;;;;;;;0.74;100.00;100078.81;5093460;28;19963;-76
2022/03/21 06:42:52;;;;;;;;;;;;;;;0.80;100.00;100088.50;5094314;28;19924;-76
2022/03/21 06:45:19;;;;;;;;;;;;;;;0.88;100.00;100082.91;5094279;28;19924;-76
2022/03/21 06:47:46;;;;;;;;;;;;;;;0.86;100.00;100087.97;5093155;28;19924;-76
2022/03/21 06:50:13;;;;;;;;;;;;;;;0.75;100.00;100085.94;5059937;28;19924;-76
2022/03/21 06:52:40;;;;;;;;;;;;;;;0.96;100.00;100090.31;5076546;28;20061;-76
2022/03/21 06:55:08;;;;;;;;;;;;;;;1.01;100.00;100092.88;5093121;28;20428;-76
2022/03/21 06:57:36;;;;;;;;;;;;;;;0.99;100.00;100097.91;5092522;28;19973;-77
2022/03/21 07:00:05;;;;;;;;;;;;;;;1.16;100.00;100095.00;5076137;28;20041;-76
2022/03/21 07:02:33;;;;;;;;;;;;;;;1.40;100.00;100091.56;5053978;28;19925;-76
2022/03/21 07:05:00;;;;;;;;;;;;;;;1.94;100.00;100104.09;5052550;28;19925;-76
2022/03/21 07:07:29;;;;;;;;;;;;;;;2.62;100.00;100099.69;5054173;28;19925;-78
2022/03/21 07:09:56;;;;;;;;;;;;;;;2.87;100.00;100101.25;5052749;28;19925;-76
2022/03/21 07:12:23;;;;;;;;;;;;;;;3.53;100.00;100100.50;5053532;28;19929;-76
2022/03/21 07:14:50;;;;;;;;;;;;;;;4.15;100.00;100097.03;5036020;28;19929;-78
2022/03/21 07:17:19;;;;;;;;;;;;;;;4.44;100.00;100093.81;5052666;28;19964;-78
2022/03/21 07:19:46;;;;;;;;;;;;;;;4.92;100.00;100098.91;5052941;28;19925;-75
2022/03/21 07:22:14;;;;;;;;;;;;;;;5.34;100.00;100094.31;5053413;28;20394;-77
2022/03/21 07:24:41;;;;;;;;;;;;;;;5.42;100.00;100096.06;5053746;28;19924;-79
2022/03/21 07:27:08;;;;;;;;;;;;;;;5.70;100.00;100092.25;5053404;28;19975;-79
2022/03/21 07:29:35;;;;;;;;;;;;;;;6.05;100.00;100095.72;5053657;28;19929;-78
2022/03/21 07:32:03;;;;;;;;;;;;;;;6.19;100.00;100091.25;5052408;28;19932;-78
2022/03/21 07:34:32;;;;;;;;;;;;;;;6.58;100.00;100092.72;5052991;28;20671;-78
2022/03/21 07:36:59;;;;;;;;;;;;;;;6.62;100.00;100092.78;5080488;28;19924;-78
2022/03/21 07:39:26;;;;;;;;;;;;;;;6.89;100.00;100089.63;5083549;28;19948;-78
2022/03/21 07:42:00;;;;;;;;;;;;;;;6.94;100.00;100088.50;5102196;28;19928;-78
2022/03/21 07:47:20;;;;;;;;;;;;;;;7.44;100.00;100090.78;5093984;28;19924;-78
2022/03/21 07:49:48;;;;;;;;;;;;;;;7.77;100.00;100088.00;5093830;28;19924;-79
2022/03/21 07:52:19;;;;;;;;;;;;;;;7.90;100.00;100089.34;5093901;28;20018;-78
2022/03/21 07:54:47;;;;;;;;;;;;;;;8.02;100.00;100094.63;5093461;28;20382;-78
2022/03/21 07:57:14;;;;;;;;;;;;;;;8.13;100.00;100095.56;5093561;28;20508;-78
2022/03/21 07:59:41;;;;;;;;;;;;;;;8.48;100.00;100098.69;5073677;28;19932;-77
2022/03/21 08:02:08;;;;;;;;;;;;;;;8.56;100.00;100096.75;5069640;28;19928;-78
2022/03/21 08:04:35;;;;;;;;;;;;;;;8.65;100.00;100095.25;5062249;28;19943;-77
2022/03/21 08:07:03;;;;;;;;;;;;;;;8.76;100.00;100096.13;5077658;28;19928;-78
2022/03/21 08:09:32;;;;;;;;;;;;;;;9.36;100.00;100104.88;5071900;28;19974;-78
2022/03/21 08:12:02;;;;;;;;;;;;;;;9.30;100.00;100100.06;5073296;28;20022;-78
2022/03/21 08:14:29;;;;;;;;;;;;;;;9.59;100.00;100102.59;5071188;28;19924;-78
2022/03/21 08:16:56;;;;;;;;;;;;;;;9.64;100.00;100098.63;5071772;28;20386;-77
2022/03/21 08:19:24;;;;;;;;;;;;;;;9.82;100.00;100094.72;5073139;28;19931;-78
2022/03/21 08:21:52;;;;;;;;;;;;;;;9.63;100.00;100111.00;5055169;28;19948;-77
2022/03/21 08:24:20;;;;;;;;;;;;;;;9.41;100.00;100100.91;5072105;28;20272;-77
2022/03/21 08:26:48;;;;;;;;;;;;;;;8.62;100.00;100107.16;5073135;28;19924;-77
2022/03/21 08:29:15;;;;;;;;;;;;;;;8.69;100.00;100112.78;5072947;28;19932;-77
2022/03/21 08:31:43;;;;;;;;;;;;;;;8.59;100.00;100116.28;5072005;28;19929;-77
2022/03/21 08:34:10;;;;;;;;;;;;;;;9.15;100.00;100113.94;5072534;28;19955;-77
2022/03/21 08:36:38;;;;;;;;;;;;;;;9.49;100.00;100113.72;5075769;28;20329;-77
2022/03/21 08:39:05;;;;;;;;;;;;;;;9.25;100.00;100117.16;5075427;28;20393;-77
2022/03/21 08:41:32;;;;;;;;;;;;;;;9.29;100.00;100116.00;5075537;28;19970;-77
2022/03/21 08:43:59;;;;;;;;;;;;;;;9.71;100.00;100107.06;5076669;28;19924;-77
2022/03/21 08:46:26;;;;;;;;;;;;;;;9.11;100.00;100112.31;5076888;28;20015;-80
2022/03/21 08:52:01;;;;;;;;;;;;;;;10.01;100.00;100113.13;5080368;28;19924;-78
2022/03/21 08:54:28;;;;;;;;;;;;;;;9.74;100.00;100118.22;5066198;28;19925;-78
2022/03/21 08:56:55;;;;;;;;;;;;;;;10.15;100.00;100115.97;5099693;28;20355;-80
2022/03/21 08:59:23;;;;;;;;;;;;;;;9.42;100.00;100116.47;5065968;28;19932;-79
2022/03/21 09:01:50;;;;;;;;;;;;;;;9.48;100.00;100129.63;5072597;28;20023;-79
2022/03/21 09:07:35;;;;;;;;;;;;;;;9.67;100.00;100125.75;5076597;28;19934;-79
2022/03/21 09:10:03;;;;;;;;;;;;;;;9.91;100.00;100127.84;5071988;28;19971;-79
2022/03/21 09:12:32;;;;;;;;;;;;;;;9.49;100.00;100127.66;5061908;28;19936;-79
2022/03/21 09:14:59;;;;;;;;;;;;;;;9.93;100.00;100114.28;5068941;28;20090;-74
2022/03/21 09:17:28;;;;;;;;;;;;;;;8.55;100.00;100129.41;5072574;28;19932;-85
2022/03/21 09:19:55;;;;;;;;;;;;;;;9.26;100.00;100129.91;5055324;28;19929;-84
2022/03/21 09:22:22;;;;;;;;;;;;;;;8.98;100.00;100131.34;5073635;28;19955;-83
2022/03/21 09:24:51;;;;;;;;;;;;;;;9.07;100.00;100128.22;5073177;28;20058;-91
2022/03/21 09:27:20;;;;;;;;;;;;;;;8.37;100.00;100131.22;5069180;28;19977;-79
2022/03/21 09:29:48;;;;;;;;;;;;;;;8.73;100.00;100130.34;5082505;28;20019;-79
2022/03/21 09:32:16;;;;;;;;;;;;;;;8.78;100.00;100132.75;5071983;28;19970;-80
2022/03/21 09:34:44;;;;;;;;;;;;;;;8.99;100.00;100132.94;5071488;28;20267;-80
2022/03/21 09:37:11;;;;;;;;;;;;;;;9.01;100.00;100133.34;5071586;28;19981;-80
2022/03/21 09:39:38;;;;;;;;;;;;;;;8.98;100.00;100120.19;5072123;28;19924;-79
2022/03/21 09:42:06;;;;;;;;;;;;;;;8.62;100.00;100123.88;5071475;28;19936;-78
2022/03/21 09:44:34;;;;;;;;;;;;;;;8.63;100.00;100124.69;5070872;28;19960;-78
2022/03/21 09:48:08;;;;;;;;;;;;;;;8.92;100.00;100121.72;5071666;28;19978;-78
2022/03/21 09:49:52;;;;;;;;;;;;;;;8.75;100.00;100116.81;5071788;28;19924;-78
2022/03/21 09:52:20;;;;;;;;;;;;;;;9.24;100.00;100110.00;5070521;28;19956;-79
2022/03/21 09:54:48;;;;;;;;;;;;;;;9.34;100.00;100118.44;5071815;28;19924;-79
2022/03/21 09:57:15;;;;;;;;;;;;;;;9.83;100.00;100113.06;5090828;28;20469;-79
2022/03/21 09:59:43;;;;;;;;;;;;;;;10.00;100.00;100111.50;5074931;28;19931;-78
2022/03/21 10:02:16;;;;;;;;;;;;;;;10.56;100.00;100108.84;5070981;28;19932;-79
2022/03/21 10:04:44;;;;;;;;;;;;;;;10.54;100.00;100105.69;5070965;28;19932;-78
2022/03/21 10:07:11;;;;;;;;;;;;;;;10.96;100.00;100100.84;5070363;28;20065;-78
2022/03/21 10:09:38;;;;;;;;;;;;;;;10.46;100.00;100101.28;5070727;28;19928;-78
2022/03/21 10:12:08;;;;;;;;;;;;;;;10.42;100.00;100094.91;5071098;28;19928;-78
2022/03/21 10:14:37;;;;;;;;;;;;;;;10.58;100.00;100084.91;5070529;28;19959;-77
2022/03/21 10:17:09;;;;;;;;;;;;;;;10.40;100.00;100089.69;5070903;28;19928;-78
2022/03/21 10:19:51;;;;;;;;;;;;;;;11.20;100.00;100096.44;5057250;28;19925;-78
2022/03/21 10:22:20;;;;;;;;;;;;;;;11.66;100.00;100074.69;5050945;28;20252;-78
2022/03/21 10:24:49;;;;;;;;;;;;;;;12.22;100.00;100077.19;5056385;28;19978;-77
2022/03/21 10:27:45;;;;;;;;;;;;;;;12.02;100.00;100078.94;5071464;28;19928;-78
2022/03/21 10:30:15;;;;;;;;;;;;;;;12.05;100.00;100080.94;5065818;28;19924;-78
2022/03/21 10:32:43;;;;;;;;;;;;;;;12.26;100.00;100077.97;5070612;28;19929;-79
2022/03/21 10:35:10;;;;;;;;;;;;;;;12.41;100.00;100064.66;5070747;28;19935;-78
2022/03/21 10:37:42;;;;;;;;;;;;;;;12.67;100.00;100070.47;5070453;28;19963;-78
2022/03/21 10:40:20;;;;;;;;;;;;;;;12.36;100.00;100073.50;5070653;28;19924;-79
2022/03/21 10:42:55;;;;;;;;;;;;;;;12.07;100.00;100070.09;5102516;28;19924;-78
2022/03/21 10:45:23;;;;;;;;;;;;;;;11.88;100.00;100073.41;5070248;28;20387;-78
2022/03/21 10:47:51;;;;;;;;;;;;;;;11.55;100.00;100071.13;5068746;28;19925;-79
2022/03/21 10:50:31;;;;;;;;;;;;;;;12.12;100.00;100060.44;5069824;28;19928;-78
2022/03/21 10:53:06;;;;;;;;;;;;;;;12.59;100.00;100063.31;5070011;28;19924;-79
2022/03/21 10:55:33;;;;;;;;;;;;;;;12.80;100.00;100064.34;5096979;28;20275;-78
2022/03/21 10:58:01;;;;;;;;;;;;;;;12.74;100.00;100061.19;5068889;28;19977;-78
2022/03/21 11:00:29;;;;;;;;;;;;;;;12.97;100.00;100066.16;5069978;28;19964;-77
2022/03/21 11:03:05;;;;;;;;;;;;;;;13.06;100.00;100060.91;5068657;28;19932;-77
2022/03/21 11:05:37;;;;;;;;;;;;;;;13.29;100.00;100061.06;5068279;28;19924;-77
2022/03/21 11:08:04;;;;;;;;;;;;;;;12.85;100.00;100053.47;5070198;28;19982;-77
2022/03/21 11:10:32;;;;;;;;;;;;;;;12.65;100.00;100061.66;5068815;28;19930;-78
2022/03/21 11:13:03;;;;;;;;;;;;;;;12.93;100.00;100062.59;5070585;28;19935;-83
2022/03/21 11:15:30;;;;;;;;;;;;;;;13.07;100.00;100054.09;5068208;28;20094;-82
2022/03/21 11:17:58;;;;;;;;;;;;;;;13.01;100.00;100066.97;5077658;28;19924;-81
2022/03/21 11:20:26;;;;;;;;;;;;;;;13.16;100.00;100066.41;5091168;28;19935;-78
2022/03/21 11:22:55;;;;;;;;;;;;;;;13.07;100.00;100063.28;5089970;28;19990;-78
2022/03/21 11:25:28;;;;;;;;;;;;;;;13.17;100.00;100061.59;5090064;28;20294;-78
2022/03/21 11:28:23;;;;;;;;;;;;;;;13.16;100.00;100062.81;5106392;28;19924;-77
2022/03/21 11:31:19;;;;;;;;;;;;;;;12.81;100.00;100063.13;5081353;28;20429;-78
2022/03/21 11:33:56;;;;;;;;;;;;;;;13.50;100.00;100055.19;5085364;28;19946;-78
2022/03/21 11:36:24;;;;;;;;;;;;;;;13.02;100.00;100063.75;5072440;28;19924;-78
2022/03/21 11:38:57;;;;;;;;;;;;;;;12.70;100.00;100052.81;5080992;28;19924;-78
2022/03/21 11:41:26;;;;;;;;;;;;;;;13.36;100.00;100058.97;5069572;28;19924;-79
2022/03/21 11:44:14;;;;;;;;;;;;;;;13.73;100.00;100066.53;5069664;28;19928;-78
2022/03/21 11:46:44;;;;;;;;;;;;;;;13.68;100.00;100044.53;5069372;28;19932;-78
2022/03/21 11:49:17;;;;;;;;;;;;;;;13.74;100.00;100054.88;5069089;28;20306;-79
2022/03/21 11:51:45;;;;;;;;;;;;;;;14.03;100.00;100055.28;5069867;28;20406;-79
2022/03/21 11:54:26;;;;;;;;;;;;;;;13.15;100.00;100061.19;5068856;28;19928;-78
2022/03/21 11:56:54;;;;;;;;;;;;;;;13.79;100.00;100054.44;5064595;28;19960;-78
2022/03/21 11:59:33;;;;;;;;;;;;;;;14.05;100.00;100052.88;5069015;28;19925;-78
2022/03/21 12:02:13;;;;;;;;;;;;;;;14.25;100.00;100039.75;5073712;28;19959;-77
2022/03/21 12:04:41;;;;;;;;;;;;;;;14.02;100.00;100051.72;5088262;28;19924;-77
2022/03/21 12:07:11;;;;;;;;;;;;;;;13.46;100.00;100046.03;5079099;28;19973;-77
2022/03/21 12:09:40;;;;;;;;;;;;;;;12.49;100.00;100038.97;5058028;28;19932;-78
2022/03/21 12:12:10;;;;;;;;;;;;;;;13.02;100.00;100037.69;5054831;28;20071;-79
2022/03/21 12:14:44;;;;;;;;;;;;;;;13.89;100.00;100047.06;5089954;28;19924;-78
2022/03/21 12:17:11;;;;;;;;;;;;;;;14.20;100.00;100049.44;5095930;28;19931;-78
2022/03/21 12:19:44;;;;;;;;;;;;;;;14.62;100.00;100049.97;5097222;28;19974;-78
2022/03/21 12:22:27;;;;;;;;;;;;;;;14.80;100.00;100047.69;5096638;28;19932;-78
2022/03/21 12:25:15;;;;;;;;;;;;;;;15.30;100.00;100040.69;5094557;28;19928;-78
2022/03/21 12:27:51;;;;;;;;;;;;;;;15.53;100.00;100028.59;5094654;28;19924;-78
2022/03/21 12:30:27;;;;;;;;;;;;;;;15.37;100.00;100042.59;5094802;28;19924;-78
2022/03/21 12:32:55;;;;;;;;;;;;;;;15.41;100.00;100038.50;5093962;28;20123;-78
2022/03/21 12:35:31;;;;;;;;;;;;;;;15.19;100.00;100037.28;5094383;28;20319;-78
2022/03/21 12:38:03;;;;;;;;;;;;;;;14.98;100.00;100039.72;5093750;28;20010;-78
2022/03/21 12:40:34;;;;;;;;;;;;;;;14.87;100.00;100042.72;5095756;28;19924;-77
2022/03/21 12:43:01;;;;;;;;;;;;;;;14.95;100.00;100049.78;5095809;28;19981;-78
2022/03/21 12:45:29;;;;;;;;;;;;;;;14.26;100.00;100046.97;5094322;28;20007;-78
2022/03/21 12:48:05;;;;;;;;;;;;;;;14.78;100.00;100042.50;5094431;28;20027;-77
2022/03/21 12:50:33;;;;;;;;;;;;;;;14.04;100.00;100046.44;5095026;28;19931;-77
2022/03/21 12:53:09;;;;;;;;;;;;;;;13.93;100.00;100056.25;5095985;28;20375;-78
2022/03/21 12:55:39;;;;;;;;;;;;;;;14.20;100.00;100054.25;5095968;28;19924;-78
2022/03/21 12:58:10;;;;;;;;;;;;;;;13.54;100.00;100051.13;5095508;28;19927;-78
2022/03/21 13:00:39;;;;;;;;;;;;;;;14.02;100.00;100059.31;5095773;28;19924;-78
2022/03/21 13:03:09;;;;;;;;;;;;;;;14.22;100.00;100057.44;5096571;28;20022;-78
2022/03/21 13:11:22;;;;;;;;;;;;;;;13.64;100.00;100055.03;5095822;28;19930;-77
2022/03/21 13:13:54;;;;;;;;;;;;;;;13.00;100.00;100056.94;5094244;28;20294;-78
2022/03/21 13:16:22;;;;;;;;;;;;;;;13.82;100.00;100049.97;5093894;28;20344;-77